Météo Nord-Pas-de-Calais   La météo au plus près de chez vous

Station météorologique

Observations météo à Tregunc (29293)

29293001 25 m Dernier relevé à 16:12
25.9°C
Humidité 61 % Vent 10.4 km/h

Journée consultée

Dimanche 6 Septembre 2026

Synthèse de la journée

Périodes de référence en UTC

Température maximale

26.6°C

à 11:54

06h 06h

Température minimale

16.6°C

à 22:42

18h 18h

Rafale maximale

29 km/h

à 12:12

00h 00h

Précipitations

0 mm

Cumul quotidien

06h 06h

Graphiques de la journée

Heure locale Réduire

Données détaillées

Relevés météo

Pas de 6 minutes Afficher les relevés infra-horaires
Relevés météo détaillés à Tregunc pour le Dimanche 6 Septembre 2026
Heure Température °C Point de rosée °C Humidité % Vent moyen (raf.), km/h Précipitations mm
16:12 25.9 °C 17.3 °C 59 % 4 km/h (10 km/h) 0 mm0 mm
16:06 24.8 °C 16.8 °C 61 % 2 km/h (5 km/h) 0 mm0 mm
16:00 24.5 °C 16.7 °C 62 % 3 km/h (7 km/h) 0 mm0 mm
15:54 24.4 °C 16.6 °C 62 % 4 km/h (9 km/h) 0 mm0 mm
15:48 24.3 °C 16.8 °C 63 % 4 km/h (10 km/h) 0 mm0 mm
15:42 24.2 °C 16.7 °C 63 % 6 km/h (10 km/h) 0 mm0 mm
15:36 24.3 °C 16.8 °C 63 % 7 km/h (14 km/h) 0 mm0 mm
15:30 24.2 °C 16.5 °C 62 % 9 km/h (14 km/h) 0 mm0 mm
15:24 24.4 °C 16.1 °C 60 % 9 km/h (14 km/h) 0 mm0 mm
15:18 24.2 °C 16.2 °C 61 % 10 km/h (16 km/h) 0 mm0 mm
15:12 24.1 °C 16.1 °C 61 % 10 km/h (16 km/h) 0 mm0 mm
15:06 24.1 °C 15.8 °C 60 % 11 km/h (17 km/h) 0 mm0 mm
15:00 23.9 °C 15.7 °C 60 % 10 km/h (17 km/h) 0 mm0 mm
14:54 23.9 °C 15.7 °C 60 % 10 km/h (15 km/h) 0 mm0 mm
14:48 23.6 °C 15.6 °C 61 % 10 km/h (17 km/h) 0 mm0 mm
14:42 23.5 °C 15.5 °C 61 % 10 km/h (17 km/h) 0 mm0 mm
14:36 23.4 °C 15.4 °C 61 % 10 km/h (17 km/h) 0 mm0 mm
14:30 23.5 °C 15.5 °C 61 % 11 km/h (18 km/h) 0 mm0 mm
14:24 23.4 °C 15.4 °C 61 % 10 km/h (18 km/h) 0 mm0 mm
14:18 23.4 °C 15.4 °C 61 % 11 km/h (19 km/h) 0 mm0 mm
14:12 23.3 °C 15.1 °C 60 % 12 km/h (19 km/h) 0 mm0 mm
14:06 23.2 °C 15.3 °C 61 % 12 km/h (17 km/h) 0 mm0 mm
14:00 23 °C 14.8 °C 60 % 12 km/h (19 km/h) 0 mm0 mm
13:54 23.1 °C 14.9 °C 60 % 11 km/h (19 km/h) 0 mm0 mm
13:48 23.2 °C 14.7 °C 59 % 11 km/h (19 km/h) 0 mm0 mm
13:42 23.3 °C 14.8 °C 59 % 11 km/h (20 km/h) 0 mm0 mm
13:36 23.2 °C 14.7 °C 59 % 13 km/h (22 km/h) 0 mm0 mm
13:30 23 °C 14.6 °C 59 % 14 km/h (22 km/h) 0 mm0 mm
13:24 23.1 °C 14.4 °C 58 % 13 km/h (23 km/h) 0 mm0 mm
13:18 23.1 °C 14.4 °C 58 % 12 km/h (23 km/h) 0 mm0 mm
13:12 23.2 °C 14.2 °C 57 % 12 km/h (22 km/h) 0 mm0 mm
13:06 23 °C 13.7 °C 56 % 12 km/h (22 km/h) 0 mm0 mm
13:00 23.2 °C 13.9 °C 56 % 12 km/h (19 km/h) 0 mm0 mm
12:54 23.1 °C 13.8 °C 56 % 14 km/h (22 km/h) 0 mm0 mm
12:48 23.3 °C 13.7 °C 55 % 16 km/h (28 km/h) 0 mm0 mm
12:42 23.6 °C 13.7 °C 54 % 17 km/h (28 km/h) 0 mm0 mm
12:36 24.2 °C 13.7 °C 52 % 17 km/h (25 km/h) 0 mm0 mm
12:30 24.7 °C 13.6 °C 50 % 16 km/h (28 km/h) 0 mm0 mm
12:24 24.8 °C 13.4 °C 49 % 18 km/h (28 km/h) 0 mm0 mm
12:18 25.1 °C 13.6 °C 49 % 18 km/h (29 km/h) 0 mm0 mm
12:12 25.2 °C 13.4 °C 48 % 18 km/h (29 km/h) 0 mm0 mm
12:06 25.6 °C 13.8 °C 48 % 18 km/h (28 km/h) 0 mm0 mm
12:00 26.3 °C 13.8 °C 46 % 16 km/h (25 km/h) 0 mm0 mm
11:54 26.6 °C 14 °C 46 % 14 km/h (24 km/h) 0 mm0 mm
11:48 26.2 °C 14.3 °C 48 % 14 km/h (27 km/h) 0 mm0 mm
11:42 24.9 °C 13.8 °C 50 % 15 km/h (27 km/h) 0 mm0 mm
11:36 24.3 °C 13.8 °C 52 % 14 km/h (23 km/h) 0 mm0 mm
11:30 23.6 °C 14 °C 55 % 12 km/h (23 km/h) 0 mm0 mm
11:24 22.9 °C 13.7 °C 56 % 10 km/h (17 km/h) 0 mm0 mm
11:18 21.8 °C 13.4 °C 59 % 10 km/h (18 km/h) 0 mm0 mm
11:12 21 °C 13.4 °C 62 % 11 km/h (18 km/h) 0 mm0 mm
11:06 20.6 °C 13.1 °C 62 % 11 km/h (17 km/h) 0 mm0 mm
11:00 20.6 °C 12.8 °C 61 % 12 km/h (19 km/h) 0 mm0 mm
10:54 20.6 °C 12.3 °C 59 % 11 km/h (18 km/h) 0 mm0 mm
10:48 20.4 °C 12.1 °C 59 % 11 km/h (18 km/h) 0 mm0 mm
10:42 20.4 °C 11.9 °C 58 % 13 km/h (21 km/h) 0 mm0 mm
10:36 20.3 °C 11.8 °C 58 % 15 km/h (23 km/h) 0 mm0 mm
10:30 20.3 °C 11.8 °C 58 % 15 km/h (25 km/h) 0 mm0 mm
10:24 20.1 °C 11.6 °C 58 % 17 km/h (29 km/h) 0 mm0 mm
10:18 19.8 °C 11.8 °C 60 % 16 km/h (29 km/h) 0 mm0 mm
10:12 19.5 °C 12 °C 62 % 14 km/h (23 km/h) 0 mm0 mm
10:06 19.3 °C 12.1 °C 63 % 15 km/h (23 km/h) 0 mm0 mm
10:00 19 °C 12 °C 64 % 15 km/h (22 km/h) 0 mm0 mm
09:54 18.9 °C 11.9 °C 64 % 13 km/h (21 km/h) 0 mm0 mm
09:48 18.7 °C 12 °C 65 % 13 km/h (21 km/h) 0 mm0 mm
09:42 18.9 °C 11.7 °C 63 % 13 km/h (24 km/h) 0 mm0 mm
09:36 19.2 °C 11 °C 59 % 14 km/h (24 km/h) 0 mm0 mm
09:30 19.2 °C 10.7 °C 58 % 16 km/h (27 km/h) 0 mm0 mm
09:24 19.2 °C 10.7 °C 58 % 16 km/h (27 km/h) 0 mm0 mm
09:18 19.2 °C 10.7 °C 58 % 15 km/h (26 km/h) 0 mm0 mm
09:12 19.2 °C 10.7 °C 58 % 15 km/h (22 km/h) 0 mm0 mm
09:06 19.1 °C 10.9 °C 59 % 15 km/h (24 km/h) 0 mm0 mm
09:00 19 °C 10.8 °C 59 % 14 km/h (24 km/h) 0 mm0 mm
08:54 18.9 °C 10.7 °C 59 % 13 km/h (21 km/h) 0 mm0 mm
08:48 18.7 °C 10.8 °C 60 % 11 km/h (20 km/h) 0 mm0 mm
08:42 18.6 °C 10.7 °C 60 % 12 km/h (20 km/h) 0 mm0 mm
08:36 18.4 °C 10.7 °C 61 % 11 km/h (18 km/h) 0 mm0 mm
08:30 18.3 °C 10.6 °C 61 % 12 km/h (23 km/h) 0 mm0 mm
08:24 18.1 °C 10.7 °C 62 % 13 km/h (20 km/h) 0 mm0 mm
08:18 18 °C 10.6 °C 62 % 12 km/h (20 km/h) 0 mm0 mm
08:12 17.8 °C 10.7 °C 63 % 11 km/h (18 km/h) 0 mm0 mm
08:06 17.7 °C 10.6 °C 63 % 10 km/h (16 km/h) 0 mm0 mm
08:00 17.6 °C 10.5 °C 63 % 10 km/h (15 km/h) 0 mm0 mm
07:54 17.6 °C 10.5 °C 63 % 10 km/h (17 km/h) 0 mm0 mm
07:48 17.6 °C 10.5 °C 63 % 10 km/h (18 km/h) 0 mm0 mm
07:42 17.6 °C 10.5 °C 63 % 10 km/h (18 km/h) 0 mm0 mm
07:36 17.6 °C 10.5 °C 63 % 10 km/h (19 km/h) 0 mm0 mm
07:30 17.5 °C 10.6 °C 64 % 12 km/h (18 km/h) 0 mm0 mm
07:24 17.3 °C 10.4 °C 64 % 12 km/h (18 km/h) 0 mm0 mm
07:18 17.1 °C 10.5 °C 65 % 11 km/h (17 km/h) 0 mm0 mm
07:12 17.1 °C 10.5 °C 65 % 10 km/h (17 km/h) 0 mm0 mm
07:06 17.1 °C 10.5 °C 65 % 10 km/h (16 km/h) 0 mm0 mm
07:00 17.1 °C 10.5 °C 65 % 11 km/h (17 km/h) 0 mm0 mm
06:54 17.1 °C 10.5 °C 65 % 12 km/h (17 km/h) 0 mm0 mm
06:48 17 °C 10.6 °C 66 % 10 km/h (18 km/h) 0 mm0 mm
06:42 17 °C 10.6 °C 66 % 10 km/h (21 km/h) 0 mm0 mm
06:36 17 °C 10.6 °C 66 % 9 km/h (21 km/h) 0 mm0 mm
06:30 17.1 °C 10.5 °C 65 % 9 km/h (17 km/h) 0 mm0 mm
06:24 17.2 °C 10.6 °C 65 % 9 km/h (16 km/h) 0 mm0 mm
06:18 17.4 °C 10.5 °C 64 % 10 km/h (17 km/h) 0 mm0 mm
06:12 17.5 °C 10.6 °C 64 % 10 km/h (18 km/h) 0 mm0 mm
06:06 17.5 °C 10.6 °C 64 % 10 km/h (18 km/h) 0 mm0 mm
06:00 17.6 °C 10.5 °C 63 % 11 km/h (17 km/h) 0 mm0 mm
05:54 17.6 °C 10.5 °C 63 % 12 km/h (19 km/h) 0 mm0 mm
05:48 17.7 °C 10.6 °C 63 % 12 km/h (23 km/h) 0 mm0 mm
05:42 17.8 °C 10.4 °C 62 % 13 km/h (23 km/h) 0 mm0 mm
05:36 17.8 °C 10.4 °C 62 % 12 km/h (23 km/h) 0 mm0 mm
05:30 17.8 °C 10.4 °C 62 % 13 km/h (24 km/h) 0 mm0 mm
05:24 17.8 °C 10.4 °C 62 % 13 km/h (24 km/h) 0 mm0 mm
05:18 17.8 °C 10.4 °C 62 % 14 km/h (23 km/h) 0 mm0 mm
05:12 17.9 °C 10.5 °C 62 % 15 km/h (23 km/h) 0 mm0 mm
05:06 17.7 °C 10.6 °C 63 % 15 km/h (24 km/h) 0 mm0 mm
05:00 17.7 °C 10.6 °C 63 % 15 km/h (24 km/h) 0 mm0 mm
04:54 17.7 °C 10.6 °C 63 % 15 km/h (23 km/h) 0 mm0 mm
04:48 17.8 °C 10.7 °C 63 % 15 km/h (23 km/h) 0 mm0 mm
04:42 17.7 °C 10.6 °C 63 % 13 km/h (23 km/h) 0 mm0 mm
04:36 17.8 °C 10.4 °C 62 % 12 km/h (22 km/h) 0 mm0 mm
04:30 17.9 °C 10.5 °C 62 % 14 km/h (23 km/h) 0 mm0 mm
04:24 17.9 °C 10.5 °C 62 % 14 km/h (23 km/h) 0 mm0 mm
04:18 17.9 °C 10.5 °C 62 % 13 km/h (23 km/h) 0 mm0 mm
04:12 17.9 °C 10.5 °C 62 % 13 km/h (22 km/h) 0 mm0 mm
04:06 17.8 °C 10.4 °C 62 % 14 km/h (22 km/h) 0 mm0 mm
04:00 17.8 °C 10.4 °C 62 % 15 km/h (25 km/h) 0 mm0 mm
03:54 17.7 °C 10.6 °C 63 % 15 km/h (25 km/h) 0 mm0 mm
03:48 17.7 °C 10.6 °C 63 % 15 km/h (25 km/h) 0 mm0 mm
03:42 17.7 °C 10.6 °C 63 % 15 km/h (25 km/h) 0 mm0 mm
03:36 17.7 °C 10.6 °C 63 % 14 km/h (22 km/h) 0 mm0 mm
03:30 17.7 °C 10.6 °C 63 % 14 km/h (23 km/h) 0 mm0 mm
03:24 17.8 °C 10.7 °C 63 % 13 km/h (23 km/h) 0 mm0 mm
03:18 17.8 °C 10.7 °C 63 % 12 km/h (23 km/h) 0 mm0 mm
03:12 17.9 °C 10.8 °C 63 % 13 km/h (23 km/h) 0 mm0 mm
03:06 17.9 °C 10.8 °C 63 % 13 km/h (20 km/h) 0 mm0 mm
03:00 18 °C 10.8 °C 63 % 12 km/h (20 km/h) 0 mm0 mm
02:54 18.1 °C 10.9 °C 63 % 12 km/h (19 km/h) 0 mm0 mm
02:48 18.1 °C 11.2 °C 64 % 14 km/h (23 km/h) 0 mm0 mm
02:42 18.1 °C 11.2 °C 64 % 13 km/h (23 km/h) 0 mm0 mm
02:36 18 °C 11.3 °C 65 % 13 km/h (19 km/h) 0 mm0 mm
02:30 18 °C 11.3 °C 65 % 13 km/h (25 km/h) 0 mm0 mm
02:24 18 °C 11.5 °C 66 % 14 km/h (25 km/h) 0 mm0 mm
02:18 18 °C 11.5 °C 66 % 15 km/h (22 km/h) 0 mm0 mm
02:12 18 °C 11.8 °C 67 % 15 km/h (23 km/h) 0 mm0 mm
02:06 18 °C 11.8 °C 67 % 16 km/h (24 km/h) 0 mm0 mm
02:00 18 °C 12 °C 68 % 15 km/h (26 km/h) 0 mm0 mm
01:54 17.9 °C 12.1 °C 69 % 14 km/h (26 km/h) 0 mm0 mm
01:48 17.9 °C 12.1 °C 69 % 12 km/h (21 km/h) 0 mm0 mm
01:42 17.9 °C 12.3 °C 70 % 13 km/h (21 km/h) 0 mm0 mm
01:36 17.9 °C 12.3 °C 70 % 13 km/h (21 km/h) 0 mm0 mm
01:30 17.9 °C 12.6 °C 71 % 13 km/h (21 km/h) 0 mm0 mm
01:24 17.9 °C 12.6 °C 71 % 12 km/h (19 km/h) 0 mm0 mm
01:18 17.9 °C 12.6 °C 71 % 13 km/h (21 km/h) 0 mm0 mm
01:12 17.8 °C 12.7 °C 72 % 12 km/h (18 km/h) 0 mm0 mm
01:06 17.8 °C 12.9 °C 73 % 12 km/h (18 km/h) 0 mm0 mm
01:00 17.8 °C 12.9 °C 73 % 11 km/h (18 km/h) 0 mm0 mm
00:54 17.9 °C 12.8 °C 72 % 12 km/h (18 km/h) 0 mm0 mm
00:48 17.8 °C 12.9 °C 73 % 11 km/h (16 km/h) 0 mm0 mm
00:42 17.7 °C 12.8 °C 73 % 9 km/h (15 km/h) 0 mm0 mm
00:36 17.7 °C 12.8 °C 73 % 8 km/h (13 km/h) 0 mm0 mm
00:30 17.7 °C 12.8 °C 73 % 8 km/h (14 km/h) 0 mm0 mm
00:24 17.4 °C 12.9 °C 75 % 7 km/h (13 km/h) 0 mm0 mm
00:18 17.4 °C 12.9 °C 75 % 8 km/h (13 km/h) 0 mm0 mm
00:12 17.4 °C 12.9 °C 75 % 7 km/h (10 km/h) 0 mm0 mm
00:06 17.2 °C 12.9 °C 76 % 7 km/h (11 km/h) 0 mm0 mm
00:00 17.1 °C 12.8 °C 76 % 6 km/h (10 km/h) 0 mm0 mm

Données via Météo-France

Relevés météo à Tregunc

Cette page rassemble les observations de la station de Tregunc : température, humidité, vent, précipitations et pression atmosphérique. Les graphiques facilitent le suivi de la journée, tandis que le tableau donne accès aux mesures horaires et infra-horaires disponibles.

Pour replacer ces mesures dans leur contexte, consultez la climatologie de Tregunc ainsi que ses normales et records. Retrouvez aussi la carte des observations météo en temps réel.